createdAt,value
2018-05-08T00:01:00.607Z,18.70
2018-05-08T00:03:28.556Z,18.60
2018-05-08T00:05:56.428Z,18.60
2018-05-08T00:08:24.387Z,18.60
2018-05-08T00:10:52.216Z,18.60
2018-05-08T00:13:20.885Z,18.50
2018-05-08T00:15:48.762Z,18.50
2018-05-08T00:18:17.732Z,18.50
2018-05-08T00:20:45.687Z,18.50
2018-05-08T00:23:13.632Z,18.50
2018-05-08T00:25:41.492Z,18.50
2018-05-08T00:28:09.316Z,18.50
2018-05-08T00:30:37.276Z,18.50
2018-05-08T00:33:05.131Z,18.40
2018-05-08T00:35:33.000Z,18.40
2018-05-08T00:38:00.873Z,18.40
2018-05-08T00:40:28.779Z,18.40
2018-05-08T00:42:57.421Z,18.30
2018-05-08T00:45:25.261Z,18.30
2018-05-08T00:47:53.206Z,18.30
2018-05-08T00:50:21.076Z,18.30
2018-05-08T00:52:48.949Z,18.30
2018-05-08T00:55:16.842Z,18.30
2018-05-08T00:57:46.499Z,18.30
2018-05-08T01:00:15.121Z,18.20
2018-05-08T01:02:43.013Z,18.20
2018-05-08T01:05:10.873Z,18.20
2018-05-08T01:07:38.820Z,18.20
2018-05-08T01:10:06.669Z,18.20
2018-05-08T01:12:35.260Z,18.20
2018-05-08T01:15:03.240Z,18.20
2018-05-08T01:17:31.110Z,18.10
2018-05-08T01:19:58.970Z,18.10
2018-05-08T01:22:26.825Z,18.10
2018-05-08T01:24:54.691Z,18.00
2018-05-08T01:27:22.573Z,18.00
2018-05-08T01:29:50.455Z,18.00
2018-05-08T01:32:18.351Z,18.00
2018-05-08T01:34:46.874Z,18.00
2018-05-08T01:37:14.763Z,18.00
2018-05-08T01:39:42.654Z,18.00
2018-05-08T01:42:10.544Z,17.90
2018-05-08T01:44:39.189Z,17.90
2018-05-08T01:47:07.021Z,17.90
2018-05-08T01:49:35.000Z,17.90
2018-05-08T01:52:02.864Z,17.90
2018-05-08T01:54:30.864Z,17.80
2018-05-08T01:56:58.714Z,17.80
2018-05-08T01:59:26.584Z,17.80
2018-05-08T02:01:54.436Z,17.80
2018-05-08T02:04:22.281Z,17.80
2018-05-08T02:06:51.039Z,17.70
2018-05-08T02:09:18.867Z,17.70
2018-05-08T02:11:46.725Z,17.70
2018-05-08T02:14:15.138Z,17.70
2018-05-08T02:16:43.011Z,17.70
2018-05-08T02:19:10.926Z,17.80
2018-05-08T02:21:38.807Z,17.80
2018-05-08T02:24:06.705Z,17.80
2018-05-08T02:26:34.575Z,17.80
2018-05-08T02:29:02.528Z,17.80
2018-05-08T02:31:30.443Z,17.80
2018-05-08T02:33:59.066Z,17.80
2018-05-08T02:36:27.012Z,17.80
2018-05-08T02:38:54.897Z,17.80
2018-05-08T02:41:22.751Z,17.90
2018-05-08T02:43:50.663Z,17.80
2018-05-08T02:46:18.569Z,17.80
2018-05-08T02:48:47.216Z,17.90
2018-05-08T02:51:15.066Z,17.80
2018-05-08T02:53:43.904Z,17.80
2018-05-08T02:56:12.596Z,17.80
2018-05-08T02:58:41.236Z,17.80
2018-05-08T03:01:09.196Z,17.80
2018-05-08T03:03:37.129Z,17.80
2018-05-08T03:06:05.101Z,17.80
2018-05-08T03:08:32.971Z,17.80
2018-05-08T03:11:00.900Z,17.80
2018-05-08T03:13:28.770Z,17.70
2018-05-08T03:15:56.660Z,17.70
2018-05-08T03:18:24.508Z,17.70
2018-05-08T03:20:53.198Z,17.60
2018-05-08T03:23:21.818Z,17.60
2018-05-08T03:25:49.705Z,17.60
2018-05-08T03:28:18.497Z,17.60
2018-05-08T03:30:46.379Z,17.60
2018-05-08T03:33:14.239Z,17.60
2018-05-08T03:35:42.093Z,17.50
2018-05-08T03:38:09.966Z,17.50
2018-05-08T03:40:37.965Z,17.50
2018-05-08T03:43:06.640Z,17.40
2018-05-08T03:45:34.550Z,17.40
2018-05-08T03:48:02.493Z,17.40
2018-05-08T03:50:31.180Z,17.40
2018-05-08T03:52:59.894Z,17.40
2018-05-08T03:55:27.744Z,17.40
2018-05-08T03:57:55.605Z,17.40
2018-05-08T04:00:36.073Z,17.30
2018-05-08T04:03:16.632Z,17.30
2018-05-08T04:08:57.745Z,17.30
2018-05-08T04:11:25.665Z,17.30
2018-05-08T04:13:53.539Z,17.30
2018-05-08T04:16:21.410Z,17.30
2018-05-08T04:18:49.286Z,17.30
2018-05-08T04:21:17.957Z,17.30
2018-05-08T04:23:45.856Z,17.30
2018-05-08T04:26:13.785Z,17.30
2018-05-08T04:28:41.706Z,17.30
2018-05-08T04:31:09.646Z,17.30
2018-05-08T04:33:38.290Z,17.30
2018-05-08T04:36:06.178Z,17.30
2018-05-08T04:38:34.061Z,17.40
2018-05-08T04:41:02.712Z,17.40
2018-05-08T04:43:30.583Z,17.40
2018-05-08T04:45:58.434Z,17.40
2018-05-08T04:48:26.338Z,17.50
2018-05-08T04:50:54.922Z,17.50
2018-05-08T04:53:23.562Z,17.60
2018-05-08T04:55:51.515Z,17.60
2018-05-08T04:58:20.085Z,17.70
2018-05-08T05:00:48.012Z,17.70
2018-05-08T05:03:15.891Z,17.80
2018-05-08T05:05:44.520Z,17.90
2018-05-08T05:08:12.435Z,17.90
2018-05-08T05:10:40.400Z,17.90
2018-05-08T05:13:08.227Z,18.00
2018-05-08T05:15:36.253Z,18.10
2018-05-08T05:18:06.422Z,18.20
2018-05-08T05:20:34.306Z,18.20
2018-05-08T05:23:02.156Z,18.30
2018-05-08T05:25:30.369Z,18.30
2018-05-08T05:27:58.380Z,18.40
2018-05-08T05:30:26.284Z,18.50
2018-05-08T05:32:54.220Z,18.60
2018-05-08T05:35:22.118Z,18.70
2018-05-08T05:37:50.767Z,18.90
2018-05-08T05:40:19.507Z,19.00
2018-05-08T05:42:47.386Z,19.00
2018-05-08T05:45:15.296Z,19.20
2018-05-08T05:47:43.220Z,19.20
2018-05-08T05:50:11.070Z,19.30
2018-05-08T05:52:38.939Z,19.40
2018-05-08T05:55:07.561Z,19.60
2018-05-08T05:57:35.484Z,19.60
2018-05-08T06:00:03.510Z,19.70
2018-05-08T06:02:32.108Z,19.90
2018-05-08T06:04:59.971Z,19.90
2018-05-08T06:07:27.880Z,20.10
2018-05-08T06:09:55.725Z,20.10
2018-05-08T06:12:23.620Z,20.20
2018-05-08T06:14:51.488Z,20.30
2018-05-08T06:17:19.423Z,20.30
2018-05-08T06:19:48.217Z,20.50
2018-05-08T06:22:16.072Z,20.50
2018-05-08T06:24:43.940Z,20.50
2018-05-08T06:27:11.847Z,20.60
2018-05-08T06:29:39.788Z,20.60
2018-05-08T06:32:07.636Z,20.70
2018-05-08T06:34:35.520Z,20.70
2018-05-08T06:37:03.384Z,20.70
2018-05-08T06:39:31.414Z,20.80
2018-05-08T06:41:59.360Z,20.80
2018-05-08T06:44:27.992Z,20.90
2018-05-08T06:46:55.849Z,20.90
2018-05-08T06:49:23.679Z,21.00
2018-05-08T06:51:52.295Z,21.10
2018-05-08T06:54:20.340Z,21.10
2018-05-08T06:56:48.931Z,21.20
2018-05-08T06:59:17.557Z,21.30
2018-05-08T07:01:46.514Z,21.30
2018-05-08T07:04:14.384Z,21.40
2018-05-08T07:06:42.308Z,21.40
2018-05-08T07:09:10.350Z,21.50
2018-05-08T07:11:38.201Z,21.50
2018-05-08T07:14:06.140Z,21.60
2018-05-08T07:16:34.852Z,21.60
2018-05-08T07:19:02.768Z,21.60
2018-05-08T07:21:30.646Z,21.60
2018-05-08T07:23:58.684Z,21.60
2018-05-08T07:26:26.539Z,21.70
2018-05-08T07:28:54.414Z,21.70
2018-05-08T07:31:22.358Z,21.80
2018-05-08T07:33:50.262Z,21.90
2018-05-08T07:36:18.092Z,22.00
2018-05-08T07:38:46.009Z,22.10
2018-05-08T07:41:13.850Z,22.20
2018-05-08T07:43:41.757Z,22.30
2018-05-08T07:46:10.472Z,22.50
2018-05-08T07:48:38.361Z,22.50
2018-05-08T07:51:06.335Z,22.60
2018-05-08T07:53:34.281Z,22.70
2018-05-08T07:56:02.177Z,22.80
2018-05-08T07:58:30.069Z,22.80
2018-05-08T08:00:57.968Z,22.90
2018-05-08T08:03:25.909Z,22.90
2018-05-08T08:05:53.746Z,23.00
2018-05-08T08:08:21.572Z,23.00
2018-05-08T08:10:49.516Z,23.10
2018-05-08T08:13:18.149Z,23.20
2018-05-08T08:15:46.089Z,23.20
2018-05-08T08:18:14.031Z,23.30
2018-05-08T08:20:41.851Z,23.40
2018-05-08T08:23:09.807Z,23.50
2018-05-08T08:25:37.644Z,23.60
2018-05-08T08:28:06.312Z,23.80
2018-05-08T08:30:34.164Z,23.80
2018-05-08T08:33:02.066Z,23.90
2018-05-08T08:35:30.785Z,24.10
2018-05-08T08:37:58.735Z,24.10
2018-05-08T08:40:27.435Z,24.20
2018-05-08T08:42:55.336Z,24.40
2018-05-08T08:45:23.160Z,24.50
2018-05-08T08:47:51.038Z,24.70
2018-05-08T08:50:18.904Z,24.80
2018-05-08T08:52:46.752Z,24.90
2018-05-08T08:55:15.090Z,25.00
2018-05-08T08:57:42.991Z,25.10
2018-05-08T09:00:11.741Z,25.10
2018-05-08T09:02:39.708Z,25.00
2018-05-08T09:05:07.618Z,25.10
2018-05-08T09:07:35.572Z,25.10
2018-05-08T09:10:04.248Z,25.30
2018-05-08T09:12:32.106Z,25.30
2018-05-08T09:15:02.791Z,25.50
2018-05-08T09:17:30.680Z,25.70
2018-05-08T09:19:59.332Z,25.90
2018-05-08T09:22:27.194Z,25.90
2018-05-08T09:24:55.064Z,26.00
2018-05-08T09:27:22.961Z,26.10
2018-05-08T09:29:50.900Z,26.30
2018-05-08T09:32:18.761Z,26.40
2018-05-08T09:34:46.685Z,26.60
2018-05-08T09:37:14.493Z,26.70
2018-05-08T09:39:42.409Z,26.80
2018-05-08T09:42:10.275Z,27.00
2018-05-08T09:44:38.177Z,27.20
2018-05-08T09:47:06.815Z,27.40
2018-05-08T09:49:34.637Z,27.40
2018-05-08T09:52:04.243Z,27.60
2018-05-08T09:54:32.840Z,27.70
2018-05-08T09:57:00.742Z,27.70
2018-05-08T09:59:28.622Z,27.90
2018-05-08T10:01:56.537Z,28.00
2018-05-08T10:04:24.492Z,28.10
2018-05-08T10:06:53.101Z,28.30
2018-05-08T10:09:20.939Z,28.30
2018-05-08T10:11:49.575Z,28.40
2018-05-08T10:14:17.471Z,28.40
2018-05-08T10:16:45.416Z,28.50
2018-05-08T10:19:13.420Z,28.60
2018-05-08T10:21:41.915Z,28.70
2018-05-08T10:24:10.516Z,29.10
2018-05-08T10:26:38.417Z,29.00
2018-05-08T10:29:07.025Z,29.40
2018-05-08T10:31:34.865Z,29.40
2018-05-08T10:34:02.729Z,29.50
2018-05-08T10:36:30.669Z,29.60
2018-05-08T10:38:58.584Z,29.60
2018-05-08T10:41:26.505Z,29.60
2018-05-08T10:43:54.407Z,29.70
2018-05-08T10:46:22.311Z,29.80
2018-05-08T10:48:50.988Z,29.80
2018-05-08T10:51:18.972Z,29.80
2018-05-08T10:53:47.660Z,30.00
2018-05-08T10:56:16.328Z,30.20
2018-05-08T10:58:44.175Z,30.20
2018-05-08T11:01:12.048Z,30.40
2018-05-08T11:03:39.919Z,30.60
2018-05-08T11:06:07.753Z,30.70
2018-05-08T11:08:35.721Z,30.80
2018-05-08T11:11:03.670Z,30.80
2018-05-08T11:13:31.563Z,30.90
2018-05-08T11:15:59.443Z,31.00
2018-05-08T11:18:28.576Z,31.10
2018-05-08T11:20:57.291Z,31.30
2018-05-08T11:23:25.171Z,31.30
2018-05-08T11:25:53.044Z,31.50
2018-05-08T11:28:20.871Z,31.50
2018-05-08T11:30:49.511Z,31.60
2018-05-08T11:33:17.447Z,31.60
2018-05-08T11:35:45.286Z,31.60
2018-05-08T11:38:13.916Z,31.60
2018-05-08T11:40:41.787Z,31.60
2018-05-08T11:43:09.658Z,31.70
2018-05-08T11:45:37.507Z,31.80
2018-05-08T11:48:05.467Z,31.70
2018-05-08T11:50:33.307Z,31.70
2018-05-08T11:53:01.932Z,31.80
2018-05-08T11:55:29.807Z,31.80
2018-05-08T11:57:57.695Z,31.90
2018-05-08T12:00:25.668Z,32.00
2018-05-08T12:02:53.605Z,32.10
2018-05-08T12:05:22.750Z,32.10
2018-05-08T12:07:50.668Z,32.10
2018-05-08T12:10:18.549Z,32.10
2018-05-08T12:12:46.415Z,32.20
2018-05-08T12:15:14.247Z,32.20
2018-05-08T12:17:42.123Z,32.20
2018-05-08T12:20:09.993Z,32.30
2018-05-08T12:22:37.917Z,32.40
2018-05-08T12:25:06.550Z,32.70
2018-05-08T12:27:34.512Z,32.70
2018-05-08T12:30:02.345Z,32.80
2018-05-08T12:32:30.277Z,32.80
2018-05-08T12:34:58.151Z,32.80
2018-05-08T12:37:26.014Z,32.70
2018-05-08T12:39:53.948Z,32.50
2018-05-08T12:42:21.836Z,32.20
2018-05-08T12:44:49.690Z,31.90
2018-05-08T12:47:17.678Z,31.70
2018-05-08T12:49:45.620Z,31.40
2018-05-08T12:52:13.521Z,31.10
2018-05-08T12:54:41.481Z,30.80
2018-05-08T12:57:09.468Z,30.60
2018-05-08T12:59:37.309Z,30.40
2018-05-08T13:02:05.199Z,30.20
2018-05-08T13:04:33.053Z,30.10
2018-05-08T13:07:01.211Z,30.00
2018-05-08T13:09:28.903Z,29.80
2018-05-08T13:11:57.581Z,29.60
2018-05-08T13:14:25.409Z,29.60
2018-05-08T13:16:53.364Z,29.50
2018-05-08T13:19:21.221Z,29.40
2018-05-08T13:21:49.053Z,29.30
2018-05-08T13:24:16.954Z,29.30
2018-05-08T13:26:44.835Z,29.20
2018-05-08T13:29:12.767Z,29.20
2018-05-08T13:31:41.394Z,29.10
2018-05-08T13:34:09.306Z,29.10
2018-05-08T13:36:37.281Z,28.90
2018-05-08T13:39:05.364Z,28.80
2018-05-08T13:41:33.972Z,28.70
2018-05-08T13:44:01.821Z,28.60
2018-05-08T13:46:29.694Z,28.60
2018-05-08T13:48:57.643Z,28.50
2018-05-08T13:51:27.096Z,28.40
2018-05-08T13:53:54.991Z,28.40
2018-05-08T13:56:22.869Z,28.40
2018-05-08T13:58:50.809Z,28.30
2018-05-08T14:01:19.196Z,28.20
2018-05-08T14:03:47.061Z,28.10
2018-05-08T14:06:15.040Z,28.00
2018-05-08T14:08:42.976Z,27.90
2018-05-08T14:11:10.856Z,27.80
2018-05-08T14:13:38.738Z,27.80
2018-05-08T14:16:06.710Z,27.70
2018-05-08T14:18:34.614Z,27.70
2018-05-08T14:21:02.567Z,27.70
2018-05-08T14:23:31.212Z,27.60
2018-05-08T14:25:59.928Z,27.50
2018-05-08T14:28:27.800Z,27.50
2018-05-08T14:30:56.481Z,27.40
2018-05-08T14:33:24.329Z,27.40
2018-05-08T14:35:52.260Z,27.40
2018-05-08T14:38:20.163Z,27.30
2018-05-08T14:40:48.109Z,27.30
2018-05-08T14:43:15.988Z,27.30
2018-05-08T14:45:43.917Z,27.20
2018-05-08T14:48:11.797Z,27.20
2018-05-08T14:50:39.700Z,27.10
2018-05-08T14:53:07.632Z,27.10
2018-05-08T14:55:35.565Z,27.00
2018-05-08T14:58:04.181Z,27.00
2018-05-08T15:00:32.009Z,26.90
2018-05-08T15:02:59.856Z,26.90
2018-05-08T15:05:27.713Z,26.90
2018-05-08T15:07:55.664Z,26.90
2018-05-08T15:10:23.550Z,26.80
2018-05-08T15:12:51.448Z,26.80
2018-05-08T15:15:20.064Z,26.70
2018-05-08T15:17:47.925Z,26.60
2018-05-08T15:20:15.788Z,26.60
2018-05-08T15:22:43.723Z,26.60
2018-05-08T15:25:11.678Z,26.50
2018-05-08T15:27:39.628Z,26.50
2018-05-08T15:30:07.484Z,26.40
2018-05-08T15:32:35.349Z,26.40
2018-05-08T15:35:03.243Z,26.30
2018-05-08T15:37:31.132Z,26.30
2018-05-08T15:39:59.856Z,26.10
2018-05-08T15:42:27.724Z,26.10
2018-05-08T15:44:55.629Z,26.00
2018-05-08T15:47:23.539Z,26.00
2018-05-08T15:49:53.312Z,25.90
2018-05-08T15:52:21.201Z,25.90
2018-05-08T15:54:49.821Z,25.80
2018-05-08T15:57:17.672Z,25.70
2018-05-08T15:59:45.597Z,25.70
2018-05-08T16:02:13.546Z,25.70
2018-05-08T16:04:41.456Z,25.70
2018-05-08T16:07:10.142Z,25.60
2018-05-08T16:09:38.747Z,25.60
2018-05-08T16:12:06.625Z,25.50
2018-05-08T16:14:34.488Z,25.50
2018-05-08T16:17:02.377Z,25.40
2018-05-08T16:19:30.301Z,25.40
2018-05-08T16:21:58.933Z,25.30
2018-05-08T16:24:26.856Z,25.30
2018-05-08T16:26:55.463Z,25.20
2018-05-08T16:29:23.296Z,25.20
2018-05-08T16:31:51.956Z,25.10
2018-05-08T16:34:19.831Z,25.10
2018-05-08T16:36:47.787Z,25.00
2018-05-08T16:39:15.713Z,25.00
2018-05-08T16:41:43.616Z,24.90
2018-05-08T16:44:11.481Z,24.90
2018-05-08T16:46:39.395Z,24.80
2018-05-08T16:49:08.081Z,24.70
2018-05-08T16:51:36.776Z,24.70
2018-05-08T16:54:04.788Z,24.70
2018-05-08T16:56:32.529Z,24.70
2018-05-08T16:59:00.437Z,24.60
2018-05-08T17:01:28.352Z,24.60
2018-05-08T17:03:56.208Z,24.50
2018-05-08T17:06:24.102Z,24.50
2018-05-08T17:08:51.975Z,24.40
2018-05-08T17:11:19.811Z,24.40
2018-05-08T17:13:47.690Z,24.30
2018-05-08T17:16:15.531Z,24.30
2018-05-08T17:18:44.135Z,24.20
2018-05-08T17:21:11.990Z,24.20
2018-05-08T17:23:40.608Z,24.10
2018-05-08T17:26:08.448Z,24.10
2018-05-08T17:28:36.341Z,24.10
2018-05-08T17:31:04.184Z,24.10
2018-05-08T17:33:32.184Z,24.10
2018-05-08T17:36:00.113Z,24.00
2018-05-08T17:38:27.970Z,24.00
2018-05-08T17:40:56.596Z,23.90
2018-05-08T17:43:25.615Z,23.90
2018-05-08T17:45:53.486Z,23.90
2018-05-08T17:48:21.349Z,23.80
2018-05-08T17:50:49.244Z,23.80
2018-05-08T17:53:17.899Z,23.70
2018-05-08T17:55:45.729Z,23.70
2018-05-08T17:58:13.636Z,23.60
2018-05-08T18:00:41.572Z,23.60
2018-05-08T18:03:09.409Z,23.50
2018-05-08T18:05:37.282Z,23.50
2018-05-08T18:08:05.175Z,23.40
2018-05-08T18:10:33.000Z,23.40
2018-05-08T18:13:01.616Z,23.20
2018-05-08T18:15:29.489Z,23.20
2018-05-08T18:17:57.371Z,23.20
2018-05-08T18:20:25.221Z,23.20
2018-05-08T18:22:53.067Z,23.20
2018-05-08T18:25:21.018Z,23.10
2018-05-08T18:27:49.639Z,23.00
2018-05-08T18:30:17.528Z,23.00
2018-05-08T18:32:45.461Z,23.00
2018-05-08T18:35:13.371Z,22.90
2018-05-08T18:37:41.361Z,22.80
2018-05-08T18:40:09.988Z,22.60
2018-05-08T18:42:37.952Z,22.60
2018-05-08T18:45:05.921Z,22.50
2018-05-08T18:47:33.857Z,22.40
2018-05-08T18:50:02.575Z,22.10
2018-05-08T18:52:30.556Z,22.10
2018-05-08T18:54:58.479Z,22.00
2018-05-08T18:57:27.181Z,21.80
2018-05-08T19:00:00.613Z,21.80
2018-05-08T19:02:28.554Z,21.80
2018-05-08T19:04:56.503Z,21.70
2018-05-08T19:07:25.191Z,21.70
2018-05-08T19:09:53.828Z,21.60
2018-05-08T19:12:21.685Z,21.60
2018-05-08T19:14:55.357Z,21.60
2018-05-08T19:17:23.268Z,21.60
2018-05-08T19:19:56.848Z,21.60
2018-05-08T19:22:24.693Z,21.50
2018-05-08T19:24:52.546Z,21.50
2018-05-08T19:27:21.264Z,21.30
2018-05-08T19:29:54.798Z,21.30
2018-05-08T19:32:22.756Z,21.30
2018-05-08T19:34:56.324Z,21.30
2018-05-08T19:37:29.760Z,21.20
2018-05-08T19:39:57.744Z,21.20
2018-05-08T19:42:25.580Z,21.10
2018-05-08T19:44:53.521Z,21.20
2018-05-08T19:47:21.414Z,21.10
2018-05-08T19:49:49.403Z,21.10
2018-05-08T19:52:17.404Z,21.00
2018-05-08T19:54:46.073Z,21.00
2018-05-08T19:57:13.901Z,21.00
2018-05-08T19:59:41.832Z,20.90
2018-05-08T20:02:09.795Z,20.90
2018-05-08T20:04:37.698Z,20.80
2018-05-08T20:07:05.632Z,20.70
2018-05-08T20:09:34.245Z,20.60
2018-05-08T20:12:02.132Z,20.50
2018-05-08T20:14:30.111Z,20.50
2018-05-08T20:16:57.978Z,20.40
2018-05-08T20:19:25.832Z,20.30
2018-05-08T20:21:53.717Z,20.20
2018-05-08T20:24:21.678Z,20.10
2018-05-08T20:26:49.557Z,20.10
2018-05-08T20:29:17.504Z,20.00
2018-05-08T20:31:45.459Z,19.90
2018-05-08T20:34:13.325Z,19.90
2018-05-08T20:36:41.261Z,19.80
2018-05-08T20:39:09.908Z,19.70
2018-05-08T20:41:37.790Z,19.70
2018-05-08T20:44:05.648Z,19.70
2018-05-08T20:46:33.537Z,19.70
2018-05-08T20:49:02.223Z,19.60
2018-05-08T20:51:30.837Z,19.50
2018-05-08T20:53:58.685Z,19.50
2018-05-08T20:56:26.521Z,19.50
2018-05-08T20:58:54.385Z,19.40
2018-05-08T21:01:22.353Z,19.40
2018-05-08T21:03:50.936Z,19.30
2018-05-08T21:06:18.800Z,19.30
2018-05-08T21:08:46.737Z,19.30
2018-05-08T21:11:14.679Z,19.30
2018-05-08T21:13:42.516Z,19.30
2018-05-08T21:16:11.503Z,19.30
2018-05-08T21:18:39.383Z,19.30
2018-05-08T21:21:08.100Z,19.30
2018-05-08T21:23:36.035Z,19.30
2018-05-08T21:26:04.792Z,19.30
2018-05-08T21:28:38.320Z,19.30
2018-05-08T21:31:14.263Z,19.30
2018-05-08T21:33:42.907Z,19.20
2018-05-08T21:36:10.807Z,19.20
2018-05-08T21:38:38.687Z,19.20
2018-05-08T21:41:06.555Z,19.20
2018-05-08T21:43:34.395Z,19.20
2018-05-08T21:46:02.212Z,19.20
2018-05-08T21:48:30.138Z,19.20
2018-05-08T21:50:58.028Z,19.20
2018-05-08T21:53:25.951Z,19.20
2018-05-08T21:55:53.853Z,19.20
2018-05-08T21:58:21.685Z,19.20
2018-05-08T22:00:49.625Z,19.20
2018-05-08T22:03:17.553Z,19.20
2018-05-08T22:05:45.425Z,19.10
2018-05-08T22:08:13.288Z,19.10
2018-05-08T22:10:41.174Z,19.00
2018-05-08T22:13:09.811Z,19.00
2018-05-08T22:15:37.691Z,19.00
2018-05-08T22:18:05.605Z,19.00
2018-05-08T22:20:33.476Z,19.00
2018-05-08T22:23:01.341Z,19.00
2018-05-08T22:25:29.232Z,18.90
2018-05-08T22:27:57.118Z,18.90
2018-05-08T22:30:25.817Z,18.90
2018-05-08T22:32:53.703Z,18.90
2018-05-08T22:35:22.309Z,18.90
2018-05-08T22:37:50.165Z,18.80
2018-05-08T22:40:18.775Z,18.80
2018-05-08T22:42:46.644Z,18.80
2018-05-08T22:45:14.580Z,18.80
2018-05-08T22:47:43.303Z,18.80
2018-05-08T22:50:11.264Z,18.80
2018-05-08T22:52:39.154Z,18.80
2018-05-08T22:55:06.984Z,18.80
2018-05-08T22:57:34.819Z,18.80
2018-05-08T23:00:02.783Z,18.80
2018-05-08T23:02:31.426Z,18.70
2018-05-08T23:04:59.336Z,18.70
2018-05-08T23:07:27.211Z,18.70
2018-05-08T23:09:55.964Z,18.60
2018-05-08T23:12:23.809Z,18.70
2018-05-08T23:14:51.691Z,18.70
2018-05-08T23:17:19.591Z,18.60
2018-05-08T23:19:47.441Z,18.60
2018-05-08T23:22:15.293Z,18.60
2018-05-08T23:24:45.192Z,18.60
2018-05-08T23:27:13.024Z,18.50
2018-05-08T23:29:42.548Z,18.50
2018-05-08T23:32:10.423Z,18.50
2018-05-08T23:34:38.312Z,18.50
2018-05-08T23:37:06.187Z,18.50
2018-05-08T23:39:34.138Z,18.50
2018-05-08T23:42:02.074Z,18.50
2018-05-08T23:44:30.051Z,18.50
2018-05-08T23:46:57.992Z,18.50
2018-05-08T23:49:26.644Z,18.50
2018-05-08T23:51:54.480Z,18.50
2018-05-08T23:54:22.443Z,18.50
2018-05-08T23:56:50.328Z,18.50
2018-05-08T23:59:18.196Z,18.40
